Time;durP1;ratioP1;P1;durP2;ratioP2;P2;SDS_P1;SDS_P2;PMS_P1;PMS_P2;Temp;Humidity;BMP_temperature;BMP_pressure;BME280_temperature;BME280_humidity;BME280_pressure;Samples;Min_cycle;Max_cycle;Signal;HPM_P1;HPM_P2
2022/10/25 00:01:28;;;;;;;3.95;1.50;;;10.80;99.90;;;;;;4838791;29;20049;-56
2022/10/25 00:03:55;;;;;;;2.53;1.42;;;10.80;99.90;;;;;;4839280;29;20053;-50
2022/10/25 00:06:23;;;;;;;2.67;1.30;;;10.80;99.90;;;;;;4839624;29;20254;-55
2022/10/25 00:08:50;;;;;;;3.30;1.25;;;10.80;99.90;;;;;;4839689;29;20041;-53
2022/10/25 00:11:26;;;;;;;4.30;1.50;;;10.80;99.90;;;;;;4839850;29;20160;-53
2022/10/25 00:13:54;;;;;;;1.95;1.20;;;10.80;99.90;;;;;;4838857;29;20305;-55
2022/10/25 00:16:26;;;;;;;8.18;1.60;;;10.80;99.90;;;;;;4839957;29;20045;-54
2022/10/25 00:18:53;;;;;;;2.30;1.20;;;10.80;99.90;;;;;;4839822;29;20042;-53
2022/10/25 00:21:20;;;;;;;5.30;2.35;;;10.80;99.90;;;;;;4840064;29;20603;-55
2022/10/25 00:23:48;;;;;;;8.23;2.65;;;10.70;99.90;;;;;;4839278;29;20054;-54
2022/10/25 00:26:15;;;;;;;7.38;3.13;;;10.70;99.90;;;;;;4839298;29;20057;-54
2022/10/25 00:28:42;;;;;;;2.17;1.77;;;10.70;99.90;;;;;;4839908;29;20333;-55
2022/10/25 00:31:10;;;;;;;;;;;10.70;99.90;;;;;;4839356;29;20800;-56
2022/10/25 00:33:38;;;;;;;14.93;3.33;;;10.70;99.90;;;;;;4839489;29;19928;-56
2022/10/25 00:36:10;;;;;;;3.17;1.60;;;10.70;99.90;;;;;;4839257;29;20494;-55
2022/10/25 00:38:38;;;;;;;4.35;2.35;;;10.70;99.90;;;;;;4838797;29;20056;-57
2022/10/25 00:41:06;;;;;;;1.70;1.60;;;10.70;99.90;;;;;;4839261;29;20053;-55
2022/10/25 00:43:58;;;;;;;2.20;1.38;;;10.70;99.90;;;;;;4851784;29;20128;-54
2022/10/25 00:46:30;;;;;;;3.63;1.85;;;10.60;99.90;;;;;;4827597;29;20061;-50
2022/10/25 00:49:03;;;;;;;5.13;1.52;;;10.60;99.90;;;;;;4839168;29;20552;-53
2022/10/25 00:51:36;;;;;;;2.08;1.50;;;10.60;99.90;;;;;;4839080;29;20046;-51
2022/10/25 00:54:04;;;;;;;6.78;2.08;;;10.60;99.90;;;;;;4822357;29;20160;-54
2022/10/25 00:56:35;;;;;;;4.57;1.88;;;10.60;99.90;;;;;;4837628;29;20793;-52
2022/10/25 00:59:05;;;;;;;8.07;1.98;;;10.60;99.90;;;;;;4838134;29;20231;-54
2022/10/25 01:01:32;;;;;;;3.60;1.67;;;10.60;99.90;;;;;;4838646;29;20204;-54
2022/10/25 01:04:04;;;;;;;12.48;2.28;;;10.60;99.90;;;;;;4838673;29;20356;-54
2022/10/25 01:06:44;;;;;;;6.63;1.83;;;10.60;99.90;;;;;;4838874;29;20364;-54
2022/10/25 01:09:15;;;;;;;7.93;1.80;;;10.60;99.90;;;;;;4838678;29;20392;-51
2022/10/25 01:11:42;;;;;;;4.93;1.85;;;10.60;99.90;;;;;;4839457;29;20417;-54
2022/10/25 01:14:13;;;;;;;3.75;1.95;;;10.60;99.90;;;;;;4837455;29;20305;-54
2022/10/25 01:16:46;;;;;;;7.53;2.25;;;10.50;99.90;;;;;;4838817;29;20599;-53
2022/10/25 01:19:46;;;;;;;6.45;2.70;;;10.50;99.90;;;;;;4839087;29;20076;-53
2022/10/25 01:22:25;;;;;;;3.60;2.33;;;10.50;99.90;;;;;;4838045;29;20140;-55
2022/10/25 01:24:58;;;;;;;4.85;2.42;;;10.50;99.90;;;;;;4838401;29;20114;-53
2022/10/25 01:27:52;;;;;;;3.30;2.42;;;10.50;99.90;;;;;;4837970;29;20061;-55
2022/10/25 01:30:25;;;;;;;3.88;2.38;;;10.50;99.90;;;;;;4838893;29;20093;-54
2022/10/25 01:33:36;;;;;;;3.97;1.80;;;10.50;99.90;;;;;;4837264;29;20594;-55
2022/10/25 01:36:11;;;;;;;5.22;1.85;;;10.50;99.90;;;;;;4837119;29;20612;-55
2022/10/25 01:38:55;;;;;;;9.02;3.30;;;10.50;99.90;;;;;;4837839;29;20044;-56
2022/10/25 01:41:37;;;;;;;2.80;1.88;;;10.50;99.90;;;;;;4839087;29;20150;-54
2022/10/25 01:44:20;;;;;;;4.50;1.80;;;10.50;99.90;;;;;;4837683;29;20578;-54
2022/10/25 01:46:57;;;;;;;5.63;2.83;;;10.50;99.90;;;;;;4838045;29;20585;-55
2022/10/25 01:49:37;;;;;;;3.53;2.78;;;10.50;99.90;;;;;;4839173;29;20045;-55
2022/10/25 01:52:04;;;;;;;14.55;2.40;;;10.50;99.90;;;;;;4837189;29;20120;-53
2022/10/25 01:54:30;;;;;;;;;;;10.50;99.90;;;;;;4839701;29;20057;-54
2022/10/25 01:57:14;;;;;;;5.15;2.70;;;10.50;99.90;;;;;;4841176;29;20156;-53
2022/10/25 01:59:43;;;;;;;7.38;2.45;;;10.40;99.90;;;;;;4841031;29;20073;-55
2022/10/25 02:02:22;;;;;;;12.80;3.03;;;10.50;99.90;;;;;;4841910;29;20138;-54
2022/10/25 02:05:00;;;;;;;5.47;2.35;;;10.40;99.90;;;;;;4841742;29;20133;-55
2022/10/25 02:07:37;;;;;;;6.40;2.65;;;10.40;99.90;;;;;;4841608;29;20053;-55
2022/10/25 02:10:24;;;;;;;5.47;2.35;;;10.40;99.90;;;;;;4841611;29;20678;-55
2022/10/25 02:12:57;;;;;;;4.13;2.27;;;10.40;99.90;;;;;;4841070;29;20046;-55
2022/10/25 02:15:31;;;;;;;4.88;2.30;;;10.40;99.90;;;;;;4841440;29;20136;-55
2022/10/25 02:18:01;;;;;;;3.35;2.20;;;10.40;99.90;;;;;;4841920;29;20050;-56
2022/10/25 02:20:32;;;;;;;3.53;1.60;;;10.30;99.90;;;;;;4842010;29;20860;-53
2022/10/25 02:23:02;;;;;;;4.07;1.73;;;10.30;99.90;;;;;;4841079;29;20109;-55
2022/10/25 02:25:32;;;;;;;2.85;1.75;;;10.30;99.90;;;;;;4841960;29;20140;-52
2022/10/25 02:28:02;;;;;;;3.60;2.28;;;10.30;99.90;;;;;;4840373;29;20533;-54
2022/10/25 02:30:32;;;;;;;13.55;2.03;;;10.30;99.90;;;;;;4841666;29;20546;-56
2022/10/25 02:32:59;;;;;;;7.47;2.10;;;10.30;99.90;;;;;;4840967;29;20053;-51
2022/10/25 02:35:26;;;;;;;;;;;10.30;99.90;;;;;;4841163;29;20604;-52
2022/10/25 02:37:52;;;;;;;6.05;2.22;;;10.30;99.90;;;;;;4841461;29;20387;-51
2022/10/25 02:40:20;;;;;;;3.15;1.90;;;10.30;99.90;;;;;;4854666;29;20042;-52
2022/10/25 02:42:46;;;;;;;8.15;2.08;;;10.30;99.90;;;;;;4841002;29;20056;-55
2022/10/25 02:45:13;;;;;;;5.72;1.92;;;10.30;99.90;;;;;;4824420;29;20100;-53
2022/10/25 02:47:40;;;;;;;;;;;10.20;99.90;;;;;;4841799;29;20142;-54
2022/10/25 02:50:07;;;;;;;4.57;2.22;;;10.20;99.90;;;;;;4841671;29;20396;-54
2022/10/25 02:52:34;;;;;;;15.38;2.35;;;10.20;99.90;;;;;;4840077;29;20351;-54
2022/10/25 02:55:01;;;;;;;26.88;3.83;;;10.30;99.90;;;;;;4841518;29;20582;-52
2022/10/25 02:57:31;;;;;;;;;;;10.20;99.90;;;;;;4854823;29;20049;-53
2022/10/25 02:59:58;;;;;;;4.10;1.75;;;10.30;99.90;;;;;;4852685;29;20178;-55
2022/10/25 03:02:24;;;;;;;;;;;10.30;99.90;;;;;;4841549;29;20042;-51
2022/10/25 03:04:51;;;;;;;6.10;1.98;;;10.30;99.90;;;;;;4840807;29;19988;-53
2022/10/25 03:07:18;;;;;;;14.18;2.17;;;10.30;99.90;;;;;;4840306;29;20053;-54
2022/10/25 03:09:45;;;;;;;7.05;2.42;;;10.30;99.90;;;;;;4841784;29;20148;-53
2022/10/25 03:12:11;;;;;;;10.82;2.30;;;10.30;99.90;;;;;;4840735;29;20378;-54
2022/10/25 03:14:38;;;;;;;12.35;2.05;;;10.30;99.90;;;;;;4855415;29;20320;-54
2022/10/25 03:17:06;;;;;;;6.47;2.10;;;10.30;99.90;;;;;;4840857;29;20346;-48
2022/10/25 03:19:33;;;;;;;8.27;1.92;;;10.30;99.90;;;;;;4841082;29;20136;-55
2022/10/25 03:22:00;;;;;;;2.03;1.58;;;10.40;99.90;;;;;;4840917;29;20059;-51
2022/10/25 03:24:26;;;;;;;;;;;10.40;99.90;;;;;;4841026;29;20056;-54
2022/10/25 03:26:53;;;;;;;13.18;2.33;;;10.40;99.90;;;;;;4823801;29;19924;-55
2022/10/25 03:29:20;;;;;;;6.18;2.20;;;10.40;99.90;;;;;;4840147;29;20140;-50
2022/10/25 03:31:47;;;;;;;4.28;1.70;;;10.40;99.90;;;;;;4841214;29;20054;-54
2022/10/25 03:34:13;;;;;;;2.03;1.50;;;10.40;99.90;;;;;;4838908;29;20054;-55
2022/10/25 03:36:40;;;;;;;2.20;1.90;;;10.40;99.90;;;;;;4840126;29;20053;-53
2022/10/25 03:39:06;;;;;;;;;;;10.40;99.90;;;;;;4841681;29;20129;-53
2022/10/25 03:41:33;;;;;;;6.03;2.08;;;10.40;99.90;;;;;;4839916;29;19928;-52
2022/10/25 03:44:00;;;;;;;10.57;2.88;;;10.50;99.90;;;;;;4840335;29;20045;-55
2022/10/25 03:46:26;;;;;;;5.57;2.45;;;10.50;99.90;;;;;;4840750;29;20049;-54
2022/10/25 03:48:53;;;;;;;;;;;10.50;99.90;;;;;;4840764;29;20072;-55
2022/10/25 03:51:20;;;;;;;7.88;2.88;;;10.50;99.90;;;;;;4841856;29;19939;-55
2022/10/25 03:53:47;;;;;;;9.82;2.35;;;10.50;99.90;;;;;;4839382;29;20061;-53
2022/10/25 03:56:13;;;;;;;7.32;2.88;;;10.50;99.90;;;;;;4840498;29;20045;-51
2022/10/25 03:58:40;;;;;;;3.00;2.10;;;10.50;99.90;;;;;;4839865;29;20059;-54
2022/10/25 04:01:08;;;;;;;7.25;2.47;;;10.50;99.90;;;;;;4837512;29;20045;-53
2022/10/25 04:03:35;;;;;;;4.68;2.55;;;10.60;99.90;;;;;;4839469;29;20227;-55
2022/10/25 04:06:02;;;;;;;5.75;2.17;;;10.50;99.90;;;;;;4838849;29;20582;-52
2022/10/25 04:08:29;;;;;;;4.82;2.22;;;10.60;99.90;;;;;;4839975;29;20053;-52
2022/10/25 04:10:56;;;;;;;5.22;1.80;;;10.60;99.90;;;;;;4839562;29;20567;-53
2022/10/25 04:13:22;;;;;;;;;;;10.60;99.90;;;;;;4840154;29;20049;-54
2022/10/25 04:15:49;;;;;;;8.55;2.28;;;10.60;99.90;;;;;;4840519;29;20046;-54
2022/10/25 04:18:16;;;;;;;4.13;2.05;;;10.60;99.90;;;;;;4838839;29;20214;-51
2022/10/25 04:20:42;;;;;;;14.27;2.38;;;10.60;99.90;;;;;;4839940;29;20300;-54
2022/10/25 04:23:09;;;;;;;5.63;2.15;;;10.60;99.90;;;;;;4838985;29;20132;-55
2022/10/25 04:25:36;;;;;;;9.52;2.50;;;10.60;99.90;;;;;;4839395;29;20085;-54
2022/10/25 04:28:03;;;;;;;7.22;2.58;;;10.60;99.90;;;;;;4839195;29;20049;-53
2022/10/25 04:30:30;;;;;;;5.97;2.17;;;10.50;99.90;;;;;;4852789;29;20062;-53
2022/10/25 04:33:03;;;;;;;12.35;2.55;;;10.50;99.90;;;;;;4838550;29;20057;-54
2022/10/25 04:35:30;;;;;;;5.10;2.40;;;10.40;99.90;;;;;;4838877;29;20056;-53
2022/10/25 04:37:57;;;;;;;;;;;10.40;99.90;;;;;;4837542;29;20081;-56
2022/10/25 04:40:24;;;;;;;5.87;2.17;;;10.40;99.90;;;;;;4840051;29;19936;-54
2022/10/25 04:42:51;;;;;;;5.97;1.90;;;10.40;99.90;;;;;;4851199;29;20339;-53
2022/10/25 04:45:17;;;;;;;5.80;2.40;;;10.40;99.90;;;;;;4839649;29;20052;-55
2022/10/25 04:47:44;;;;;;;5.72;1.90;;;10.50;99.90;;;;;;4839287;29;20042;-54
2022/10/25 04:50:11;;;;;;;;;;;10.50;99.90;;;;;;4839890;29;20053;-54
2022/10/25 04:52:38;;;;;;;7.80;1.52;;;10.50;99.90;;;;;;4852514;29;20266;-53
2022/10/25 04:55:04;;;;;;;4.18;1.90;;;10.40;99.90;;;;;;4838641;29;20049;-54
2022/10/25 04:57:31;;;;;;;4.70;1.52;;;10.40;99.90;;;;;;4852728;29;20129;-52
2022/10/25 04:59:58;;;;;;;6.95;1.90;;;10.40;99.90;;;;;;4839290;29;20037;-53
2022/10/25 05:02:25;;;;;;;4.85;1.40;;;10.40;99.90;;;;;;4835697;29;20102;-53
2022/10/25 05:04:52;;;;;;;3.92;1.70;;;10.40;99.90;;;;;;4838932;29;20053;-54
2022/10/25 05:07:19;;;;;;;;;;;10.40;99.90;;;;;;4839375;29;20061;-52
2022/10/25 05:09:46;;;;;;;13.25;1.77;;;10.30;99.90;;;;;;4839766;29;20315;-53
2022/10/25 05:12:14;;;;;;;16.70;3.08;;;10.30;99.90;;;;;;4838122;29;20068;-56
2022/10/25 05:14:40;;;;;;;10.63;1.92;;;10.30;99.90;;;;;;4837168;29;20469;-51
2022/10/25 05:17:07;;;;;;;3.80;1.80;;;10.20;99.90;;;;;;4838782;29;20057;-53
2022/10/25 05:19:34;;;;;;;4.47;2.08;;;10.10;99.90;;;;;;4838510;29;20059;-55
2022/10/25 05:22:00;;;;;;;6.03;2.10;;;10.10;99.90;;;;;;4838774;29;20492;-55
2022/10/25 05:24:27;;;;;;;11.70;1.77;;;10.00;99.90;;;;;;4838594;29;20064;-52
2022/10/25 05:26:54;;;;;;;3.10;1.60;;;10.00;99.90;;;;;;4838209;29;20046;-55
2022/10/25 05:29:21;;;;;;;6.07;1.98;;;9.90;99.90;;;;;;4838947;29;20585;-53
2022/10/25 05:31:47;;;;;;;;;;;9.90;99.90;;;;;;4838725;29;20057;-53
2022/10/25 05:34:14;;;;;;;22.00;2.13;;;9.80;99.90;;;;;;4852556;29;19928;-53
2022/10/25 05:36:41;;;;;;;11.48;1.70;;;9.80;99.90;;;;;;4838465;29;20521;-54
2022/10/25 05:39:08;;;;;;;7.72;2.03;;;9.80;99.90;;;;;;4838532;29;20359;-51
2022/10/25 05:41:35;;;;;;;6.38;1.88;;;9.70;99.90;;;;;;4838786;29;20068;-56
2022/10/25 05:44:04;;;;;;;10.45;1.42;;;9.70;99.90;;;;;;4837604;29;20145;-55
2022/10/25 05:46:31;;;;;;;8.73;2.35;;;9.70;99.90;;;;;;4839111;29;20156;-55
2022/10/25 05:48:58;;;;;;;5.57;1.95;;;9.70;99.90;;;;;;4838753;29;20315;-54
2022/10/25 05:51:31;;;;;;;16.85;2.30;;;9.70;99.90;;;;;;4838808;29;20508;-54
2022/10/25 05:54:13;;;;;;;8.18;2.00;;;9.70;99.90;;;;;;4838552;29;20073;-55
2022/10/25 05:56:40;;;;;;;;;;;9.70;99.90;;;;;;4835866;29;20053;-55
2022/10/25 05:59:10;;;;;;;7.77;2.87;;;9.70;99.90;;;;;;4837371;29;20219;-55
2022/10/25 06:01:42;;;;;;;5.18;2.03;;;9.70;99.90;;;;;;4837070;29;20804;-52
2022/10/25 06:04:10;;;;;;;3.75;2.20;;;9.80;99.90;;;;;;4835444;29;20471;-53
2022/10/25 06:06:38;;;;;;;6.20;2.75;;;9.80;99.90;;;;;;4838017;29;20050;-52
2022/10/25 06:09:06;;;;;;;7.18;2.08;;;9.80;99.90;;;;;;4820599;29;20064;-56
2022/10/25 06:11:33;;;;;;;2.63;2.10;;;9.90;99.90;;;;;;4836330;29;20068;-54
2022/10/25 06:14:00;;;;;;;3.88;2.08;;;9.90;99.90;;;;;;4837554;29;20145;-54
2022/10/25 06:16:27;;;;;;;6.05;1.70;;;9.90;99.90;;;;;;4838087;29;20109;-54
2022/10/25 06:18:54;;;;;;;5.30;1.55;;;10.00;99.90;;;;;;4837450;29;20309;-54
2022/10/25 06:21:22;;;;;;;;;;;10.00;99.90;;;;;;4837673;29;20170;-51
2022/10/25 06:23:50;;;;;;;3.03;1.98;;;10.00;99.90;;;;;;4837667;29;20255;-52
2022/10/25 06:26:20;;;;;;;8.68;2.22;;;10.00;99.90;;;;;;4837154;29;20381;-51
2022/10/25 06:28:47;;;;;;;4.65;2.20;;;10.00;99.90;;;;;;4837420;29;20248;-53
2022/10/25 06:31:18;;;;;;;8.80;1.88;;;10.00;99.90;;;;;;4818178;29;20547;-55
2022/10/25 06:33:45;;;;;;;5.82;1.65;;;10.00;99.90;;;;;;4837375;29;20045;-55
2022/10/25 06:36:15;;;;;;;5.45;2.50;;;10.00;99.90;;;;;;4838962;29;20046;-55
2022/10/25 06:38:43;;;;;;;11.18;2.25;;;10.00;99.90;;;;;;4839054;29;20065;-55
2022/10/25 06:41:20;;;;;;;6.55;2.22;;;10.00;99.90;;;;;;4841929;29;20136;-55
2022/10/25 06:43:48;;;;;;;11.88;4.00;;;10.00;99.90;;;;;;4856857;29;20166;-54
2022/10/25 06:46:28;;;;;;;7.72;2.22;;;10.00;99.90;;;;;;4855716;29;20403;-54
2022/10/25 06:48:56;;;;;;;11.40;2.22;;;10.00;99.90;;;;;;4842297;29;20321;-50
2022/10/25 06:51:25;;;;;;;30.83;3.08;;;10.10;99.90;;;;;;4841948;29;20068;-51
2022/10/25 06:53:56;;;;;;;11.85;3.47;;;10.10;99.90;;;;;;4841081;29;20524;-51
2022/10/25 06:56:24;;;;;;;8.77;2.75;;;10.10;99.90;;;;;;4855645;29;20117;-52
2022/10/25 06:58:51;;;;;;;6.38;2.50;;;10.20;99.90;;;;;;4830463;29;20608;-49
2022/10/25 07:01:19;;;;;;;6.20;3.20;;;10.40;99.90;;;;;;4841525;29;20141;-53
2022/10/25 07:03:46;;;;;;;3.78;2.30;;;10.70;99.90;;;;;;4838684;29;20042;-52
2022/10/25 07:06:20;;;;;;;9.05;2.47;;;10.90;99.90;;;;;;4840790;29;20102;-53
2022/10/25 07:08:52;;;;;;;10.98;2.70;;;11.10;99.90;;;;;;4841200;29;20535;-51
2022/10/25 07:11:20;;;;;;;2.38;2.17;;;11.20;99.90;;;;;;4841302;29;20057;-51
2022/10/25 07:13:47;;;;;;;6.20;2.42;;;11.50;99.90;;;;;;4841315;29;20478;-52
2022/10/25 07:16:16;;;;;;;6.38;2.70;;;11.80;99.90;;;;;;4840779;29;20049;-52
2022/10/25 07:18:43;;;;;;;6.65;2.00;;;12.20;99.90;;;;;;4841381;29;20046;-51
2022/10/25 07:21:13;;;;;;;5.72;1.85;;;12.70;99.90;;;;;;4841331;29;20757;-52
2022/10/25 07:23:41;;;;;;;4.07;2.05;;;13.20;99.90;;;;;;4839738;29;20116;-53
2022/10/25 07:26:13;;;;;;;4.93;1.73;;;13.60;99.90;;;;;;4841015;29;20210;-53
2022/10/25 07:28:42;;;;;;;5.15;1.52;;;14.20;99.90;;;;;;4839493;29;20045;-52
2022/10/25 07:31:18;;;;;;;10.38;1.92;;;14.60;99.90;;;;;;4840245;29;20045;-53
2022/10/25 07:33:44;;;;;;;6.03;1.73;;;15.00;99.90;;;;;;4840103;29;20420;-54
2022/10/25 07:36:11;;;;;;;7.40;1.42;;;15.40;99.90;;;;;;4839946;29;20519;-52
2022/10/25 07:38:38;;;;;;;7.47;1.77;;;15.70;99.90;;;;;;4840344;29;20295;-52
2022/10/25 07:41:05;;;;;;;;;;;15.90;99.90;;;;;;4840354;29;20064;-52
2022/10/25 07:43:31;;;;;;;4.80;1.35;;;16.20;99.90;;;;;;4840491;29;19928;-51
2022/10/25 07:45:58;;;;;;;2.08;1.42;;;16.60;99.90;;;;;;4839607;29;20050;-53
2022/10/25 07:48:25;;;;;;;5.35;1.85;;;16.90;99.90;;;;;;4839452;29;20127;-51
2022/10/25 07:50:51;;;;;;;;;;;17.10;99.90;;;;;;4840974;29;20048;-53
2022/10/25 07:53:18;;;;;;;5.25;1.77;;;17.50;99.90;;;;;;4838575;29;20410;-52
2022/10/25 07:55:51;;;;;;;;;;;17.60;99.90;;;;;;4841140;29;20049;-52
2022/10/25 07:58:18;;;;;;;7.25;1.65;;;17.80;99.90;;;;;;4840138;29;19939;-54
2022/10/25 08:00:46;;;;;;;4.22;1.85;;;18.00;99.90;;;;;;4839946;29;20349;-55
2022/10/25 08:03:14;;;;;;;5.75;2.40;;;18.20;99.90;;;;;;4839783;29;20045;-53
2022/10/25 08:05:46;;;;;;;5.00;1.55;;;18.40;99.90;;;;;;4836032;29;20049;-50
2022/10/25 08:08:14;;;;;;;10.32;1.80;;;18.40;99.90;;;;;;4830521;29;20052;-54
2022/10/25 08:10:42;;;;;;;4.32;1.60;;;18.50;99.90;;;;;;4840405;29;20064;-54
2022/10/25 08:13:09;;;;;;;4.20;1.30;;;18.70;99.90;;;;;;4838119;29;20859;-53
2022/10/25 08:15:36;;;;;;;10.45;1.48;;;18.70;99.90;;;;;;4840140;29;20238;-53
2022/10/25 08:18:03;;;;;;;2.08;1.20;;;18.80;99.90;;;;;;4838808;29;20252;-51
2022/10/25 08:20:30;;;;;;;2.58;1.35;;;19.00;99.90;;;;;;4823916;29;20069;-49
2022/10/25 08:23:17;;;;;;;2.40;1.52;;;19.10;99.90;;;;;;4838942;29;20056;-53
2022/10/25 08:25:44;;;;;;;3.15;1.55;;;19.20;99.90;;;;;;4840276;29;20057;-57
2022/10/25 08:28:11;;;;;;;2.63;1.55;;;19.40;99.90;;;;;;4840321;29;20554;-50
2022/10/25 08:30:39;;;;;;;7.10;1.67;;;19.50;99.90;;;;;;4837737;29;20057;-51
2022/10/25 08:33:06;;;;;;;3.53;1.50;;;19.70;99.90;;;;;;4839603;29;20073;-56
2022/10/25 08:35:37;;;;;;;7.32;2.30;;;19.90;99.90;;;;;;4839184;29;20056;-52
2022/10/25 08:38:05;;;;;;;5.85;1.50;;;20.10;99.90;;;;;;4839882;29;20432;-49
2022/10/25 08:41:02;;;;;;;7.75;1.50;;;20.20;99.90;;;;;;4835864;29;20046;-53
2022/10/25 08:44:04;;;;;;;11.32;1.58;;;20.40;99.90;;;;;;4839000;29;20132;-48
2022/10/25 08:46:35;;;;;;;3.35;1.38;;;20.60;99.90;;;;;;4838774;29;20383;-52
2022/10/25 08:49:25;;;;;;;6.55;1.40;;;20.60;99.90;;;;;;4838552;29;20369;-56
2022/10/25 08:51:54;;;;;;;5.65;1.30;;;20.60;99.90;;;;;;4852896;29;20583;-53
2022/10/25 08:54:41;;;;;;;10.52;1.38;;;20.70;99.90;;;;;;4835656;29;20057;-53
2022/10/25 08:57:34;;;;;;;4.32;1.00;;;20.80;99.90;;;;;;4837605;29;20121;-53
2022/10/25 09:00:10;;;;;;;4.72;1.55;;;20.90;99.90;;;;;;4835873;29;20061;-54
2022/10/25 09:02:58;;;;;;;5.72;1.15;;;21.10;98.90;;;;;;4836336;29;20229;-53
2022/10/25 09:05:38;;;;;;;4.95;1.63;;;21.20;99.90;;;;;;4835293;29;20563;-54
2022/10/25 09:08:14;;;;;;;2.50;0.93;;;21.30;99.90;;;;;;4836191;29;20441;-53
2022/10/25 09:11:01;;;;;;;3.83;1.40;;;21.40;99.90;;;;;;4837705;29;20101;-52
2022/10/25 09:13:49;;;;;;;3.72;1.25;;;21.50;97.70;;;;;;4835678;29;20054;-51
2022/10/25 09:16:20;;;;;;;4.75;1.20;;;21.50;99.40;;;;;;4836275;29;20097;-53
2022/10/25 09:18:58;;;;;;;3.60;1.02;;;21.70;98.40;;;;;;4836392;29;20440;-52
2022/10/25 09:21:47;;;;;;;2.08;0.88;;;21.90;95.70;;;;;;4837295;29;20169;-53
2022/10/25 09:24:21;;;;;;;6.35;0.95;;;22.00;94.50;;;;;;4835761;29;20128;-54
2022/10/25 09:27:13;;;;;;;3.78;1.23;;;22.20;93.50;;;;;;4836115;29;20570;-53
2022/10/25 09:29:49;;;;;;;4.85;1.20;;;22.40;93.30;;;;;;4836586;29;20365;-52
2022/10/25 09:32:32;;;;;;;3.38;1.15;;;22.60;90.80;;;;;;4835317;29;20050;-52
2022/10/25 09:35:02;;;;;;;3.42;1.00;;;22.70;88.20;;;;;;4836683;29;20053;-54
2022/10/25 09:37:40;;;;;;;1.85;0.80;;;22.70;88.10;;;;;;4835479;29;20077;-51
2022/10/25 09:40:18;;;;;;;3.65;1.10;;;22.80;82.50;;;;;;4836957;29;20144;-52
2022/10/25 09:43:05;;;;;;;2.97;1.08;;;22.90;79.30;;;;;;4836284;29;20704;-53
2022/10/25 09:45:47;;;;;;;2.47;0.90;;;23.00;72.80;;;;;;4837120;29;20124;-52
2022/10/25 09:48:45;;;;;;;1.95;1.00;;;22.90;72.40;;;;;;4836679;29;20154;-50
2022/10/25 09:51:21;;;;;;;3.67;0.93;;;23.00;77.30;;;;;;4836772;29;20045;-53
2022/10/25 09:53:52;;;;;;;4.43;1.05;;;23.10;73.50;;;;;;4836457;29;20572;-51
2022/10/25 09:56:18;;;;;;;3.97;1.30;;;23.00;71.70;;;;;;4849768;29;20057;-53
2022/10/25 09:58:48;;;;;;;4.68;1.15;;;22.90;73.40;;;;;;4836198;29;20049;-53
2022/10/25 10:01:19;;;;;;;5.07;1.40;;;22.80;72.40;;;;;;4836230;29;20046;-51
2022/10/25 10:03:46;;;;;;;5.07;1.52;;;22.70;64.50;;;;;;4836749;29;20051;-53
2022/10/25 10:06:30;;;;;;;3.08;0.90;;;22.60;65.70;;;;;;4835974;29;20552;-54
2022/10/25 10:09:01;;;;;;;6.85;1.10;;;22.50;70.70;;;;;;4831063;29;20756;-53
2022/10/25 10:11:29;;;;;;;5.53;1.02;;;22.60;72.60;;;;;;4837104;29;20524;-54
2022/10/25 10:14:17;;;;;;;2.17;1.10;;;22.70;73.80;;;;;;4834953;29;20374;-54
2022/10/25 10:16:48;;;;;;;2.22;1.30;;;22.90;70.20;;;;;;4839856;29;20375;-54
2022/10/25 10:19:19;;;;;;;2.80;1.00;;;22.90;62.50;;;;;;4840495;29;20412;-54
2022/10/25 10:21:48;;;;;;;4.32;1.35;;;23.00;67.10;;;;;;4839366;29;20385;-52
2022/10/25 10:24:27;;;;;;;1.02;0.93;;;23.10;68.80;;;;;;4839881;29;20049;-53
2022/10/25 10:26:57;;;;;;;3.20;1.27;;;23.10;67.50;;;;;;4838662;29;20140;-53
2022/10/25 10:29:30;;;;;;;7.15;1.30;;;23.00;66.30;;;;;;4840025;29;20050;-52
2022/10/25 10:32:00;;;;;;;4.90;1.52;;;23.00;67.90;;;;;;4839975;29;20049;-55
2022/10/25 10:34:29;;;;;;;5.43;1.10;;;23.00;74.80;;;;;;4839510;29;20046;-54
2022/10/25 10:37:11;;;;;;;4.55;2.00;;;23.00;77.80;;;;;;4839415;29;20593;-52
2022/10/25 10:39:50;;;;;;;3.55;1.45;;;23.10;78.70;;;;;;4839396;29;20219;-52
2022/10/25 10:42:19;;;;;;;3.03;1.00;;;23.10;76.60;;;;;;4839809;29;20073;-54
2022/10/25 10:45:02;;;;;;;6.30;2.17;;;23.20;77.40;;;;;;4852775;29;20449;-53
2022/10/25 10:47:47;;;;;;;6.32;1.33;;;23.40;78.60;;;;;;4822641;29;20061;-53
2022/10/25 10:50:27;;;;;;;3.30;1.58;;;23.50;79.60;;;;;;4852444;29;20283;-54
2022/10/25 10:53:08;;;;;;;5.53;1.45;;;23.60;84.80;;;;;;4838244;29;20101;-55
2022/10/25 10:55:50;;;;;;;6.10;1.55;;;23.70;85.20;;;;;;4840279;29;20054;-55
2022/10/25 10:58:33;;;;;;;2.92;1.20;;;23.80;82.00;;;;;;4838752;29;20037;-53
2022/10/25 11:01:01;;;;;;;3.58;1.30;;;23.90;81.30;;;;;;4822905;29;20051;-53
2022/10/25 11:03:40;;;;;;;7.57;1.63;;;24.00;79.00;;;;;;4837630;29;20052;-56
2022/10/25 11:06:31;;;;;;;6.85;1.40;;;24.10;77.40;;;;;;4838055;29;20050;-55
2022/10/25 11:09:15;;;;;;;4.22;1.20;;;24.20;76.90;;;;;;4836758;29;20128;-57
2022/10/25 11:11:43;;;;;;;3.60;1.20;;;24.30;78.30;;;;;;4839541;29;20621;-55
2022/10/25 11:14:15;;;;;;;6.22;1.38;;;24.30;71.90;;;;;;4836312;29;20136;-57
2022/10/25 11:16:48;;;;;;;7.75;1.50;;;24.30;71.00;;;;;;4838514;29;20050;-56
2022/10/25 11:19:43;;;;;;;1.80;1.40;;;24.30;75.90;;;;;;4839172;29;20136;-54
2022/10/25 11:22:23;;;;;;;5.57;1.67;;;24.50;78.00;;;;;;4837316;29;20655;-54
2022/10/25 11:25:11;;;;;;;2.67;1.20;;;24.50;75.90;;;;;;4852593;29;20081;-53
2022/10/25 11:28:03;;;;;;;4.95;2.08;;;24.50;78.20;;;;;;4836242;29;20059;-54
2022/10/25 11:30:46;;;;;;;9.98;2.35;;;24.50;79.10;;;;;;4838765;29;20057;-54
2022/10/25 11:33:37;;;;;;;9.75;2.15;;;24.40;81.60;;;;;;4837323;29;20533;-55
2022/10/25 11:36:30;;;;;;;5.75;1.73;;;24.30;81.00;;;;;;4837810;29;20053;-54
2022/10/25 11:39:04;;;;;;;3.33;1.83;;;24.00;82.70;;;;;;4838076;29;20120;-53
2022/10/25 11:41:36;;;;;;;8.45;2.67;;;23.90;87.50;;;;;;4839100;29;20416;-55
2022/10/25 11:44:26;;;;;;;4.13;1.90;;;23.80;83.30;;;;;;4837942;29;20103;-53
2022/10/25 11:47:05;;;;;;;2.70;1.83;;;23.60;86.10;;;;;;4837384;29;20128;-52
2022/10/25 11:49:37;;;;;;;5.32;2.22;;;23.60;87.00;;;;;;4853027;29;20045;-56
2022/10/25 11:52:14;;;;;;;8.32;2.15;;;23.60;88.10;;;;;;4837706;29;20055;-54
2022/10/25 11:54:55;;;;;;;6.50;2.15;;;23.60;91.30;;;;;;4838292;29;20042;-54
2022/10/25 11:57:24;;;;;;;4.22;1.92;;;23.50;85.70;;;;;;4837036;29;20045;-53
2022/10/25 11:59:59;;;;;;;3.88;2.05;;;23.30;85.40;;;;;;4838260;29;20073;-55
2022/10/25 12:02:38;;;;;;;7.53;3.15;;;22.80;89.00;;;;;;4836102;29;20490;-55
2022/10/25 12:05:33;;;;;;;6.60;2.17;;;22.10;96.80;;;;;;4836944;29;20496;-54
2022/10/25 12:08:14;;;;;;;3.47;3.00;;;21.60;99.90;;;;;;4836756;29;20140;-55
2022/10/25 12:10:48;;;;;;;4.43;2.85;;;21.10;99.90;;;;;;4825349;29;20495;-55
2022/10/25 12:13:39;;;;;;;7.82;3.58;;;20.70;99.90;;;;;;4837087;29;20045;-54
2022/10/25 12:16:10;;;;;;;2.70;2.00;;;20.40;99.90;;;;;;4820244;29;20084;-54
2022/10/25 12:18:44;;;;;;;3.35;2.20;;;20.30;99.90;;;;;;4837615;29;20346;-54
2022/10/25 12:21:17;;;;;;;7.00;2.47;;;20.40;99.90;;;;;;4837469;29;20490;-52
2022/10/25 12:23:50;;;;;;;10.85;3.10;;;20.60;99.90;;;;;;4836330;29;20160;-54
2022/10/25 12:26:34;;;;;;;8.40;3.03;;;20.90;99.90;;;;;;4838010;29;20435;-53
2022/10/25 12:29:04;;;;;;;10.18;2.65;;;21.10;99.90;;;;;;4836424;29;20460;-52
2022/10/25 12:31:37;;;;;;;4.15;2.55;;;21.30;99.90;;;;;;4838515;29;20057;-53
2022/10/25 12:34:15;;;;;;;6.72;2.85;;;21.40;99.90;;;;;;4836608;29;20049;-59
2022/10/25 12:36:46;;;;;;;9.27;2.63;;;21.60;99.90;;;;;;4837706;29;20124;-56
2022/10/25 12:39:20;;;;;;;5.28;2.92;;;21.80;99.90;;;;;;4837562;29;20556;-60
2022/10/25 12:42:05;;;;;;;8.18;3.13;;;22.10;99.90;;;;;;4849901;29;20576;-60
2022/10/25 12:45:09;;;;;;;3.88;1.83;;;22.20;99.90;;;;;;4836474;29;20290;-61
2022/10/25 12:47:39;;;;;;;6.20;2.67;;;22.30;99.90;;;;;;4836346;29;20061;-57
2022/10/25 12:50:21;;;;;;;6.57;2.13;;;22.30;99.90;;;;;;4836909;29;20049;-53
2022/10/25 12:53:03;;;;;;;7.35;2.63;;;22.10;99.90;;;;;;4835639;29;20073;-53
2022/10/25 12:55:48;;;;;;;3.90;2.22;;;22.00;99.60;;;;;;4837503;29;20058;-53
2022/10/25 12:58:36;;;;;;;5.95;2.50;;;21.80;99.90;;;;;;4850044;29;20668;-56
2022/10/25 13:01:12;;;;;;;4.35;1.83;;;21.70;99.90;;;;;;4837643;29;20049;-55
2022/10/25 13:04:05;;;;;;;5.15;2.03;;;21.70;99.90;;;;;;4836240;29;20050;-55
2022/10/25 13:06:42;;;;;;;4.53;1.88;;;21.70;99.90;;;;;;4828615;29;20354;-55
2022/10/25 13:09:18;;;;;;;8.90;2.05;;;21.80;99.90;;;;;;4836357;29;20051;-57
2022/10/25 13:11:55;;;;;;;5.75;1.60;;;21.80;99.00;;;;;;4834148;29;20059;-56
2022/10/25 13:14:32;;;;;;;5.90;1.63;;;21.80;98.40;;;;;;4836153;29;20046;-53
2022/10/25 13:17:15;;;;;;;4.93;1.88;;;21.70;98.50;;;;;;4834913;29;20053;-54
2022/10/25 13:19:49;;;;;;;3.45;1.30;;;21.70;98.90;;;;;;4837193;29;20291;-56